createdAt,value
2022-07-29T00:02:26.068Z,8.65
2022-07-29T00:04:52.862Z,8.73
2022-07-29T00:07:19.604Z,9.00
2022-07-29T00:09:52.139Z,8.52
2022-07-29T00:12:26.052Z,8.98
2022-07-29T00:14:56.790Z,8.88
2022-07-29T00:17:24.329Z,8.70
2022-07-29T00:19:51.004Z,8.90
2022-07-29T00:22:17.936Z,8.40
2022-07-29T00:24:44.638Z,8.88
2022-07-29T00:27:11.292Z,8.73
2022-07-29T00:29:37.918Z,9.10
2022-07-29T00:32:04.805Z,9.25
2022-07-29T00:34:49.925Z,9.68
2022-07-29T00:37:16.651Z,9.30
2022-07-29T00:39:43.474Z,9.18
2022-07-29T00:42:10.815Z,9.00
2022-07-29T00:44:41.140Z,9.35
2022-07-29T00:47:08.426Z,9.37
2022-07-29T00:49:35.422Z,8.55
2022-07-29T00:52:05.881Z,8.77
2022-07-29T00:54:33.748Z,8.95
2022-07-29T00:57:00.676Z,8.82
2022-07-29T00:59:35.291Z,8.73
2022-07-29T01:02:03.644Z,9.15
2022-07-29T01:04:30.874Z,8.48
2022-07-29T01:06:57.602Z,8.25
2022-07-29T01:09:42.121Z,8.60
2022-07-29T01:12:11.225Z,8.35
2022-07-29T01:14:37.848Z,8.07
2022-07-29T01:17:18.896Z,9.02
2022-07-29T01:19:48.413Z,8.30
2022-07-29T01:22:35.225Z,8.90
2022-07-29T01:25:07.688Z,9.70
2022-07-29T01:28:01.375Z,11.80
2022-07-29T01:30:28.148Z,11.45
2022-07-29T01:32:56.774Z,11.52
2022-07-29T01:35:29.768Z,12.30
2022-07-29T01:38:11.902Z,13.30
2022-07-29T01:40:48.442Z,12.52
2022-07-29T01:43:20.292Z,12.60
2022-07-29T01:45:54.184Z,12.35
2022-07-29T01:48:58.062Z,12.43
2022-07-29T01:51:37.062Z,13.30
2022-07-29T01:54:14.014Z,13.50
2022-07-29T01:56:43.063Z,12.85
2022-07-29T01:59:09.711Z,13.30
2022-07-29T02:01:37.583Z,13.10
2022-07-29T02:04:04.898Z,12.88
2022-07-29T02:06:31.600Z,12.15
2022-07-29T02:08:58.228Z,12.70
2022-07-29T02:11:25.170Z,12.43
2022-07-29T02:13:51.976Z,12.90
2022-07-29T02:16:18.640Z,13.18
2022-07-29T02:18:45.356Z,13.07
2022-07-29T02:21:15.695Z,12.80
2022-07-29T02:23:45.040Z,12.32
2022-07-29T02:26:21.506Z,12.10
2022-07-29T02:28:49.398Z,10.90
2022-07-29T02:31:17.040Z,11.70
2022-07-29T02:33:43.805Z,11.68
2022-07-29T02:36:12.573Z,10.77
2022-07-29T02:38:58.661Z,10.32
2022-07-29T02:41:28.857Z,10.15
2022-07-29T02:44:05.230Z,10.15
2022-07-29T02:46:34.124Z,10.70
2022-07-29T02:49:32.516Z,10.55
2022-07-29T02:52:01.228Z,10.38
2022-07-29T02:54:33.868Z,9.88
2022-07-29T02:57:02.232Z,9.38
2022-07-29T02:59:29.009Z,8.85
2022-07-29T03:01:55.889Z,8.88
2022-07-29T03:04:22.652Z,9.23
2022-07-29T03:06:49.852Z,8.55
2022-07-29T03:09:17.014Z,8.55
2022-07-29T03:11:49.386Z,7.70
2022-07-29T03:14:19.314Z,7.28
2022-07-29T03:16:46.318Z,7.40
2022-07-29T03:19:13.019Z,8.23
2022-07-29T03:21:39.968Z,7.68
2022-07-29T03:24:10.258Z,8.80
2022-07-29T03:26:37.515Z,8.23
2022-07-29T03:29:04.160Z,7.85
2022-07-29T03:31:30.888Z,8.23
2022-07-29T03:33:58.531Z,9.35
2022-07-29T03:36:25.827Z,10.10
2022-07-29T03:38:52.540Z,8.45
2022-07-29T03:41:19.131Z,9.40
2022-07-29T03:43:50.033Z,10.05
2022-07-29T03:46:19.008Z,10.35
2022-07-29T03:48:48.001Z,10.45
2022-07-29T03:51:14.749Z,10.75
2022-07-29T03:53:41.430Z,10.77
2022-07-29T03:56:08.041Z,11.05
2022-07-29T03:58:34.679Z,11.10
2022-07-29T04:01:01.288Z,10.90
2022-07-29T04:03:27.991Z,10.43
2022-07-29T04:06:06.941Z,11.32
2022-07-29T04:08:34.219Z,11.43
2022-07-29T04:11:01.701Z,11.43
2022-07-29T04:13:28.436Z,11.60
2022-07-29T04:15:55.297Z,12.80
2022-07-29T04:18:22.006Z,11.90
2022-07-29T04:20:48.665Z,12.30
2022-07-29T04:23:15.343Z,11.85
2022-07-29T04:25:42.169Z,11.32
2022-07-29T04:28:08.928Z,9.23
2022-07-29T04:30:36.246Z,8.80
2022-07-29T04:33:03.564Z,8.43
2022-07-29T04:35:30.770Z,7.70
2022-07-29T04:38:05.631Z,7.50
2022-07-29T04:40:34.005Z,8.52
2022-07-29T04:43:01.976Z,7.28
2022-07-29T04:45:32.454Z,7.55
2022-07-29T04:48:02.268Z,7.20
2022-07-29T04:50:28.969Z,7.10
2022-07-29T04:52:55.646Z,6.70
2022-07-29T04:55:22.322Z,7.55
2022-07-29T04:57:52.144Z,7.43
2022-07-29T05:00:18.849Z,7.32
2022-07-29T05:02:47.089Z,6.72
2022-07-29T05:05:13.806Z,7.13
2022-07-29T05:07:42.225Z,6.95
2022-07-29T05:10:09.585Z,7.20
2022-07-29T05:12:36.213Z,7.70
2022-07-29T05:15:02.881Z,11.02
2022-07-29T05:17:29.673Z,8.55
2022-07-29T05:19:56.284Z,7.80
2022-07-29T05:22:22.900Z,8.32
2022-07-29T05:24:49.659Z,7.25
2022-07-29T05:27:16.325Z,6.55
2022-07-29T05:29:45.588Z,6.85
2022-07-29T05:32:13.454Z,7.28
2022-07-29T05:34:50.772Z,7.03
2022-07-29T05:37:22.050Z,7.28
2022-07-29T05:39:56.170Z,6.80
2022-07-29T05:42:23.827Z,6.93
2022-07-29T05:44:50.490Z,7.18
2022-07-29T05:47:17.213Z,7.07
2022-07-29T05:49:43.889Z,6.90
2022-07-29T05:52:10.580Z,6.18
2022-07-29T05:54:37.246Z,6.60
2022-07-29T05:57:04.188Z,6.57
2022-07-29T05:59:30.835Z,6.90
2022-07-29T06:01:58.436Z,6.60
2022-07-29T06:04:25.449Z,6.20
2022-07-29T06:06:52.252Z,6.80
2022-07-29T06:09:18.970Z,6.95
2022-07-29T06:11:45.580Z,6.40
2022-07-29T06:14:12.398Z,6.35
2022-07-29T06:16:39.167Z,6.40
2022-07-29T06:19:05.869Z,6.47
2022-07-29T06:21:32.458Z,6.50
2022-07-29T06:23:59.110Z,6.68
2022-07-29T06:26:30.617Z,6.40
2022-07-29T06:28:58.661Z,6.63
2022-07-29T06:31:25.404Z,6.18
2022-07-29T06:33:52.154Z,6.85
2022-07-29T06:36:21.728Z,5.53
2022-07-29T06:38:51.585Z,6.35
2022-07-29T06:41:19.047Z,6.38
2022-07-29T06:43:52.152Z,5.97
2022-07-29T06:46:21.975Z,6.60
2022-07-29T06:48:49.011Z,6.07
2022-07-29T06:51:15.940Z,6.13
2022-07-29T06:54:00.633Z,5.95
2022-07-29T06:56:29.218Z,6.20
2022-07-29T06:58:55.881Z,5.85
2022-07-29T07:01:22.636Z,5.88
2022-07-29T07:03:49.331Z,5.78
2022-07-29T07:06:15.999Z,6.35
2022-07-29T07:08:42.626Z,5.75
2022-07-29T07:11:09.701Z,6.05
2022-07-29T07:13:36.629Z,5.95
2022-07-29T07:16:03.926Z,6.05
2022-07-29T07:18:30.745Z,5.78
2022-07-29T07:20:57.910Z,5.93
2022-07-29T07:23:24.716Z,5.75
2022-07-29T07:25:51.440Z,5.53
2022-07-29T07:28:18.112Z,5.60
2022-07-29T07:30:45.871Z,6.03
2022-07-29T07:33:12.474Z,5.88
2022-07-29T07:35:39.194Z,5.78
2022-07-29T07:38:07.166Z,5.65
2022-07-29T07:40:33.877Z,6.32
2022-07-29T07:43:00.685Z,6.90
2022-07-29T07:45:27.831Z,7.25
2022-07-29T07:47:54.626Z,7.28
2022-07-29T07:50:21.255Z,8.02
2022-07-29T07:52:52.880Z,8.30
2022-07-29T07:55:19.648Z,8.48
2022-07-29T07:57:46.700Z,8.20
2022-07-29T08:00:14.498Z,7.82
2022-07-29T08:02:41.315Z,8.77
2022-07-29T08:05:12.824Z,8.07
2022-07-29T08:07:39.794Z,8.50
2022-07-29T08:10:08.176Z,8.98
2022-07-29T08:12:34.798Z,8.90
2022-07-29T08:15:01.464Z,8.68
2022-07-29T08:17:28.115Z,8.63
2022-07-29T08:19:54.838Z,8.73
2022-07-29T08:22:21.695Z,8.63
2022-07-29T08:24:53.490Z,8.65
2022-07-29T08:27:42.323Z,9.20
2022-07-29T08:30:09.225Z,8.25
2022-07-29T08:35:23.460Z,8.63
2022-07-29T08:37:50.186Z,9.20
2022-07-29T08:40:16.935Z,9.15
2022-07-29T08:42:43.567Z,9.25
2022-07-29T08:45:10.471Z,9.38
2022-07-29T08:47:40.854Z,10.25
2022-07-29T08:50:08.792Z,9.52
2022-07-29T08:52:38.009Z,9.43
2022-07-29T08:55:06.420Z,10.10
2022-07-29T08:57:33.739Z,9.48
2022-07-29T09:00:06.236Z,9.75
2022-07-29T09:02:38.264Z,9.00
2022-07-29T09:05:05.330Z,8.90
2022-07-29T09:07:34.745Z,8.73
2022-07-29T09:10:02.084Z,7.75
2022-07-29T09:12:31.881Z,7.82
2022-07-29T09:15:00.368Z,7.75
2022-07-29T09:17:47.143Z,7.85
2022-07-29T09:20:18.976Z,7.97
2022-07-29T09:22:50.055Z,7.50
2022-07-29T09:25:33.563Z,7.65
2022-07-29T09:28:24.895Z,7.65
2022-07-29T09:30:53.202Z,8.20
2022-07-29T09:33:22.082Z,9.07
2022-07-29T09:36:06.094Z,10.00
2022-07-29T09:38:33.369Z,10.68
2022-07-29T09:41:05.690Z,10.85
2022-07-29T09:43:33.200Z,10.02
2022-07-29T09:46:13.058Z,10.32
2022-07-29T09:48:40.054Z,9.98
2022-07-29T09:51:28.313Z,9.85
2022-07-29T09:54:24.358Z,10.00
2022-07-29T09:56:51.026Z,10.32
2022-07-29T09:59:17.992Z,9.35
2022-07-29T10:01:44.691Z,9.43
2022-07-29T10:04:11.367Z,8.85
2022-07-29T10:07:06.005Z,8.43
2022-07-29T10:09:33.415Z,9.25
2022-07-29T10:12:10.861Z,8.68
2022-07-29T10:14:38.056Z,8.32
2022-07-29T10:17:05.407Z,8.85
2022-07-29T10:19:32.437Z,8.80
2022-07-29T10:22:00.298Z,7.95
2022-07-29T10:24:27.892Z,7.78
2022-07-29T10:26:58.497Z,7.72
2022-07-29T10:29:26.051Z,7.90
2022-07-29T10:31:58.777Z,7.57
2022-07-29T10:35:06.119Z,7.40
2022-07-29T10:37:55.125Z,8.05
2022-07-29T10:41:06.798Z,7.35
2022-07-29T10:43:38.838Z,7.18
2022-07-29T10:46:09.181Z,7.30
2022-07-29T10:48:41.251Z,7.13
2022-07-29T10:51:10.094Z,6.82
2022-07-29T10:53:51.948Z,7.30
2022-07-29T10:56:35.480Z,6.72
2022-07-29T10:59:24.072Z,6.57
2022-07-29T11:01:53.564Z,6.87
2022-07-29T11:04:45.576Z,6.70
2022-07-29T11:07:13.821Z,6.47
2022-07-29T11:09:41.912Z,6.40
2022-07-29T11:12:39.372Z,7.03
2022-07-29T11:15:07.888Z,6.53
2022-07-29T11:17:53.473Z,6.57
2022-07-29T11:20:33.112Z,6.65
2022-07-29T11:22:59.995Z,6.60
2022-07-29T11:25:50.811Z,6.25
2022-07-29T11:28:23.237Z,6.22
2022-07-29T11:33:56.005Z,6.40
2022-07-29T11:36:28.002Z,5.85
2022-07-29T11:39:16.367Z,6.15
2022-07-29T11:41:45.041Z,5.72
2022-07-29T11:44:13.371Z,6.45
2022-07-29T11:46:53.908Z,5.90
2022-07-29T11:49:31.943Z,5.53
2022-07-29T11:52:02.495Z,6.00
2022-07-29T11:54:52.267Z,5.90
2022-07-29T11:57:21.907Z,5.82
2022-07-29T11:59:48.670Z,5.80
2022-07-29T12:02:37.555Z,6.03
2022-07-29T12:05:02.267Z,6.13
2022-07-29T12:07:37.978Z,5.75
2022-07-29T12:10:06.226Z,6.28
2022-07-29T12:12:33.475Z,5.75
2022-07-29T12:15:21.501Z,6.00
2022-07-29T12:17:49.324Z,5.50
2022-07-29T12:20:29.488Z,5.90
2022-07-29T12:22:56.859Z,5.30
2022-07-29T12:25:33.161Z,6.07
2022-07-29T12:28:02.046Z,5.43
2022-07-29T12:30:49.546Z,5.60
2022-07-29T12:33:24.235Z,5.40
2022-07-29T12:36:06.310Z,5.35
2022-07-29T12:38:35.777Z,5.55
2022-07-29T12:41:02.710Z,6.00
2022-07-29T12:43:33.453Z,5.78
2022-07-29T12:46:01.784Z,5.90
2022-07-29T12:48:40.308Z,5.40
2022-07-29T12:51:08.004Z,5.82
2022-07-29T12:53:34.908Z,5.55
2022-07-29T12:56:08.051Z,5.65
2022-07-29T12:58:42.083Z,5.65
2022-07-29T13:01:17.420Z,5.47
2022-07-29T13:03:57.538Z,5.82
2022-07-29T13:06:46.038Z,5.60
2022-07-29T13:09:18.446Z,5.88
2022-07-29T13:11:49.291Z,5.80
2022-07-29T13:17:10.629Z,5.75
2022-07-29T13:19:44.722Z,5.75
2022-07-29T13:22:12.697Z,5.70
2022-07-29T13:24:55.048Z,6.00
2022-07-29T13:27:23.399Z,5.95
2022-07-29T13:29:52.377Z,6.30
2022-07-29T13:32:27.728Z,6.20
2022-07-29T13:34:55.523Z,5.97
2022-07-29T13:37:22.147Z,6.28
2022-07-29T13:39:51.359Z,5.90
2022-07-29T13:42:19.941Z,5.75
2022-07-29T13:44:46.585Z,6.00
2022-07-29T13:47:13.759Z,5.82
2022-07-29T13:49:40.388Z,6.35
2022-07-29T13:52:08.421Z,6.57
2022-07-29T13:54:42.000Z,6.45
2022-07-29T13:57:09.268Z,5.80
2022-07-29T13:59:36.197Z,6.35
2022-07-29T14:02:03.112Z,5.65
2022-07-29T14:04:29.839Z,6.28
2022-07-29T14:06:56.474Z,6.00
2022-07-29T14:09:25.588Z,6.50
2022-07-29T14:11:55.124Z,6.15
2022-07-29T14:14:22.083Z,6.38
2022-07-29T14:16:52.207Z,6.30
2022-07-29T14:19:19.152Z,5.72
2022-07-29T14:21:46.381Z,5.88
2022-07-29T14:24:21.741Z,6.10
2022-07-29T14:26:49.795Z,6.05
2022-07-29T14:29:16.469Z,6.00
2022-07-29T14:31:44.838Z,6.90
2022-07-29T14:34:11.541Z,6.60
2022-07-29T14:36:38.186Z,5.82
2022-07-29T14:39:05.101Z,5.68
2022-07-29T14:41:31.757Z,6.30
2022-07-29T14:44:01.526Z,6.50
2022-07-29T14:46:28.678Z,5.88
2022-07-29T14:48:55.438Z,6.03
2022-07-29T14:51:22.141Z,6.10
2022-07-29T14:53:48.818Z,6.05
2022-07-29T14:56:36.075Z,5.95
2022-07-29T14:59:02.058Z,5.85
2022-07-29T15:01:28.886Z,5.95
2022-07-29T15:03:59.560Z,6.32
2022-07-29T15:08:53.364Z,6.28
2022-07-29T15:11:19.973Z,6.30
2022-07-29T15:13:46.592Z,6.40
2022-07-29T15:16:13.328Z,6.28
2022-07-29T15:18:40.190Z,6.35
2022-07-29T15:21:07.947Z,6.00
2022-07-29T15:23:37.269Z,6.38
2022-07-29T15:26:04.582Z,6.55
2022-07-29T15:28:31.251Z,6.45
2022-07-29T15:30:57.892Z,5.95
2022-07-29T15:33:24.545Z,6.25
2022-07-29T15:35:51.202Z,6.70
2022-07-29T15:38:18.309Z,6.45
2022-07-29T15:40:46.590Z,6.18
2022-07-29T15:43:13.243Z,6.47
2022-07-29T15:46:03.391Z,6.38
2022-07-29T15:48:30.194Z,5.88
2022-07-29T15:50:56.859Z,6.50
2022-07-29T15:53:23.612Z,6.18
2022-07-29T15:55:50.224Z,5.97
2022-07-29T15:58:17.599Z,6.28
2022-07-29T16:00:44.312Z,5.95
2022-07-29T16:03:10.979Z,6.38
2022-07-29T16:05:37.765Z,6.03
2022-07-29T16:08:04.458Z,6.50
2022-07-29T16:10:31.062Z,6.35
2022-07-29T16:12:57.669Z,6.30
2022-07-29T16:15:24.347Z,5.95
2022-07-29T16:17:50.977Z,6.00
2022-07-29T16:20:17.667Z,6.60
2022-07-29T16:22:44.305Z,6.30
2022-07-29T16:25:11.068Z,6.40
2022-07-29T16:27:38.286Z,6.10
2022-07-29T16:30:08.251Z,6.18
2022-07-29T16:32:34.938Z,5.82
2022-07-29T16:35:02.868Z,6.38
2022-07-29T16:37:33.693Z,5.90
2022-07-29T16:40:00.433Z,6.25
2022-07-29T16:42:45.504Z,6.28
2022-07-29T16:45:13.439Z,6.40
2022-07-29T16:47:40.231Z,6.32
2022-07-29T16:50:07.507Z,6.32
2022-07-29T16:52:34.251Z,6.28
2022-07-29T16:55:00.873Z,6.00
2022-07-29T16:57:27.546Z,6.25
2022-07-29T16:59:54.186Z,6.03
2022-07-29T17:02:20.867Z,5.93
2022-07-29T17:04:47.562Z,6.22
2022-07-29T17:07:14.311Z,6.10
2022-07-29T17:09:43.107Z,6.20
2022-07-29T17:12:09.817Z,6.35
2022-07-29T17:14:36.822Z,6.43
2022-07-29T17:17:04.321Z,6.00
2022-07-29T17:19:33.608Z,6.32
2022-07-29T17:22:09.206Z,6.18
2022-07-29T17:24:38.938Z,6.35
2022-07-29T17:27:07.003Z,6.43
2022-07-29T17:29:35.046Z,6.03
2022-07-29T17:32:01.660Z,6.10
2022-07-29T17:34:28.277Z,5.78
2022-07-29T17:36:55.278Z,5.93
2022-07-29T17:39:22.051Z,6.03
2022-07-29T17:41:48.796Z,5.75
2022-07-29T17:44:15.423Z,5.82
2022-07-29T17:46:44.238Z,5.72
2022-07-29T17:49:11.018Z,6.18
2022-07-29T17:51:37.677Z,5.60
2022-07-29T17:54:04.410Z,5.97
2022-07-29T17:56:31.117Z,6.05
2022-07-29T17:59:01.113Z,6.38
2022-07-29T18:01:28.344Z,6.07
2022-07-29T18:03:58.446Z,6.22
2022-07-29T18:06:26.753Z,6.40
2022-07-29T18:08:56.035Z,6.18
2022-07-29T18:11:23.012Z,6.13
2022-07-29T18:13:49.630Z,6.13
2022-07-29T18:16:16.498Z,5.80
2022-07-29T18:18:45.252Z,6.20
2022-07-29T18:21:13.000Z,6.07
2022-07-29T18:23:39.988Z,6.40
2022-07-29T18:26:06.610Z,6.30
2022-07-29T18:28:33.276Z,5.78
2022-07-29T18:31:00.655Z,5.88
2022-07-29T18:33:27.861Z,6.28
2022-07-29T18:36:11.223Z,5.80
2022-07-29T18:38:41.766Z,5.93
2022-07-29T18:41:08.527Z,5.50
2022-07-29T18:43:35.192Z,5.57
2022-07-29T18:46:01.904Z,5.72
2022-07-29T18:48:31.641Z,6.40
2022-07-29T18:50:58.271Z,5.68
2022-07-29T18:53:24.894Z,6.05
2022-07-29T18:55:51.549Z,6.05
2022-07-29T18:58:18.201Z,6.55
2022-07-29T19:00:44.820Z,6.38
2022-07-29T19:03:11.529Z,5.88
2022-07-29T19:05:38.332Z,6.05
2022-07-29T19:08:05.253Z,6.00
2022-07-29T19:10:31.912Z,5.72
2022-07-29T19:12:58.832Z,5.70
2022-07-29T19:15:25.591Z,5.93
2022-07-29T19:17:52.268Z,5.78
2022-07-29T19:20:19.029Z,5.57
2022-07-29T19:22:48.646Z,6.13
2022-07-29T19:25:15.326Z,5.57
2022-07-29T19:27:42.006Z,6.40
2022-07-29T19:30:09.622Z,5.72
2022-07-29T19:32:36.853Z,5.32
2022-07-29T19:35:23.263Z,5.57
2022-07-29T19:37:50.863Z,5.82
2022-07-29T19:40:17.560Z,5.60
2022-07-29T19:42:44.228Z,5.57
2022-07-29T19:45:11.523Z,5.53
2022-07-29T19:47:38.152Z,5.15
2022-07-29T19:50:05.216Z,5.93
2022-07-29T19:52:31.859Z,5.50
2022-07-29T19:54:58.549Z,5.60
2022-07-29T19:57:25.260Z,5.00
2022-07-29T19:59:52.928Z,4.93
2022-07-29T20:02:19.696Z,5.38
2022-07-29T20:04:46.461Z,5.60
2022-07-29T20:07:13.620Z,5.35
2022-07-29T20:09:40.945Z,5.43
2022-07-29T20:12:08.844Z,5.20
2022-07-29T20:14:35.517Z,5.82
2022-07-29T20:17:02.309Z,5.43
2022-07-29T20:19:29.241Z,5.13
2022-07-29T20:21:58.008Z,5.20
2022-07-29T20:24:24.765Z,5.15
2022-07-29T20:26:51.520Z,5.38
2022-07-29T20:29:18.183Z,5.43
2022-07-29T20:31:45.748Z,5.15
2022-07-29T20:34:20.051Z,4.85
2022-07-29T20:36:48.714Z,4.75
2022-07-29T20:39:15.331Z,4.50
2022-07-29T20:41:41.935Z,5.40
2022-07-29T20:44:08.572Z,4.80
2022-07-29T20:46:35.257Z,4.75
2022-07-29T20:49:01.900Z,4.93
2022-07-29T20:51:28.706Z,5.28
2022-07-29T20:53:55.367Z,5.68
2022-07-29T20:56:21.973Z,6.72
2022-07-29T20:58:48.627Z,7.10
2022-07-29T21:01:15.340Z,19.80
2022-07-29T21:03:42.027Z,22.60
2022-07-29T21:06:09.256Z,22.52
2022-07-29T21:08:35.944Z,51.00
2022-07-29T21:11:02.601Z,66.25
2022-07-29T21:13:29.355Z,87.72
2022-07-29T21:16:02.016Z,101.65
2022-07-29T21:18:32.624Z,126.95
2022-07-29T21:21:03.324Z,124.15
2022-07-29T21:23:30.274Z,168.68
2022-07-29T21:25:57.092Z,180.48
2022-07-29T21:28:26.524Z,187.98
2022-07-29T21:31:04.457Z,184.45
2022-07-29T21:33:31.375Z,187.07
2022-07-29T21:36:35.442Z,184.95
2022-07-29T21:38:46.787Z,179.38
2022-07-29T21:41:14.872Z,168.90
2022-07-29T21:43:42.368Z,161.63
2022-07-29T21:46:09.130Z,162.98
2022-07-29T21:48:35.868Z,157.35
2022-07-29T21:51:02.516Z,157.63
2022-07-29T21:53:29.271Z,159.82
2022-07-29T21:55:57.463Z,155.15
2022-07-29T21:58:24.771Z,153.43
2022-07-29T22:00:51.677Z,152.73
2022-07-29T22:03:18.409Z,152.32
2022-07-29T22:05:47.545Z,141.63
2022-07-29T22:08:14.320Z,141.07
2022-07-29T22:10:40.995Z,136.35
2022-07-29T22:13:07.819Z,128.32
2022-07-29T22:15:34.506Z,122.90
2022-07-29T22:18:01.310Z,119.25
2022-07-29T22:20:30.951Z,113.93
2022-07-29T22:22:57.710Z,113.05
2022-07-29T22:25:24.415Z,108.97
2022-07-29T22:27:51.060Z,98.78
2022-07-29T22:30:17.811Z,97.55
2022-07-29T22:32:44.484Z,90.20
2022-07-29T22:35:11.217Z,88.53
2022-07-29T22:37:37.940Z,85.68
2022-07-29T22:40:05.204Z,81.20
2022-07-29T22:42:31.960Z,77.88
2022-07-29T22:44:58.600Z,73.47
2022-07-29T22:47:46.397Z,69.85
2022-07-29T22:50:11.953Z,67.32
2022-07-29T22:52:38.637Z,63.42
2022-07-29T22:55:05.523Z,59.45
2022-07-29T22:57:32.440Z,55.90
2022-07-29T23:00:01.697Z,53.40
2022-07-29T23:02:28.494Z,53.33
2022-07-29T23:04:55.171Z,48.30
2022-07-29T23:07:21.772Z,46.25
2022-07-29T23:09:48.389Z,45.05
2022-07-29T23:12:15.019Z,40.80
2022-07-29T23:14:41.787Z,40.17
2022-07-29T23:17:08.575Z,37.10
2022-07-29T23:19:37.446Z,36.15
2022-07-29T23:22:05.448Z,34.70
2022-07-29T23:24:32.100Z,20.60
2022-07-29T23:26:59.053Z,23.77
2022-07-29T23:29:26.412Z,21.70
2022-07-29T23:31:53.073Z,22.17
2022-07-29T23:34:19.805Z,22.83
2022-07-29T23:36:46.523Z,23.98
2022-07-29T23:39:13.326Z,28.20
2022-07-29T23:41:40.350Z,31.42
2022-07-29T23:44:07.040Z,41.80
2022-07-29T23:46:33.757Z,43.60
2022-07-29T23:49:00.503Z,60.83
2022-07-29T23:51:29.147Z,61.17
2022-07-29T23:53:56.018Z,62.60
2022-07-29T23:56:22.670Z,73.35
2022-07-29T23:58:49.322Z,63.35
